sensor_id;sensor_type;location;lat;lon;timestamp;pressure;altitude;pressure_sealevel;temperature;humidity
71621;BME280;59471;42.254;23.102;2023-04-19T00:00:59;95462.00;;;9.07;84.90
71621;BME280;59471;42.254;23.102;2023-04-19T00:03:26;95457.59;;;9.08;84.26
71621;BME280;59471;42.254;23.102;2023-04-19T00:05:54;95458.09;;;9.26;82.88
71621;BME280;59471;42.254;23.102;2023-04-19T00:08:22;95456.53;;;9.17;83.72
71621;BME280;59471;42.254;23.102;2023-04-19T00:10:48;95462.41;;;9.19;83.28
71621;BME280;59471;42.254;23.102;2023-04-19T00:13:14;95457.81;;;9.21;82.49
71621;BME280;59471;42.254;23.102;2023-04-19T00:15:39;95457.13;;;9.27;81.89
71621;BME280;59471;42.254;23.102;2023-04-19T00:18:05;95451.66;;;9.14;82.64
71621;BME280;59471;42.254;23.102;2023-04-19T00:20:31;95451.31;;;9.17;81.40
71621;BME280;59471;42.254;23.102;2023-04-19T00:22:57;95448.63;;;9.25;83.32
71621;BME280;59471;42.254;23.102;2023-04-19T00:25:23;95454.00;;;9.09;83.59
71621;BME280;59471;42.254;23.102;2023-04-19T00:27:49;95449.88;;;9.14;83.08
71621;BME280;59471;42.254;23.102;2023-04-19T00:30:15;95445.72;;;9.20;81.96
71621;BME280;59471;42.254;23.102;2023-04-19T00:32:40;95445.28;;;9.16;82.78
71621;BME280;59471;42.254;23.102;2023-04-19T00:35:06;95453.91;;;9.02;83.34
71621;BME280;59471;42.254;23.102;2023-04-19T00:37:32;95445.44;;;9.00;83.13
71621;BME280;59471;42.254;23.102;2023-04-19T00:39:57;95443.91;;;9.05;83.11
71621;BME280;59471;42.254;23.102;2023-04-19T00:42:23;95451.41;;;9.09;82.60
71621;BME280;59471;42.254;23.102;2023-04-19T00:44:48;95443.38;;;8.95;83.92
71621;BME280;59471;42.254;23.102;2023-04-19T00:47:14;95441.91;;;9.08;83.78
71621;BME280;59471;42.254;23.102;2023-04-19T00:49:40;95446.44;;;9.14;83.04
71621;BME280;59471;42.254;23.102;2023-04-19T00:52:06;95445.53;;;9.07;81.92
71621;BME280;59471;42.254;23.102;2023-04-19T00:54:32;95439.66;;;8.90;84.10
71621;BME280;59471;42.254;23.102;2023-04-19T00:56:58;95437.19;;;8.88;83.43
71621;BME280;59471;42.254;23.102;2023-04-19T00:59:23;95442.19;;;8.98;82.81
71621;BME280;59471;42.254;23.102;2023-04-19T01:01:49;95434.94;;;8.85;83.32
71621;BME280;59471;42.254;23.102;2023-04-19T01:04:15;95430.25;;;8.80;83.39
71621;BME280;59471;42.254;23.102;2023-04-19T01:06:41;95436.75;;;8.85;83.76
71621;BME280;59471;42.254;23.102;2023-04-19T01:09:07;95423.72;;;8.62;84.14
71621;BME280;59471;42.254;23.102;2023-04-19T01:11:33;95439.66;;;8.67;84.59
71621;BME280;59471;42.254;23.102;2023-04-19T01:13:59;95427.94;;;8.63;84.00
71621;BME280;59471;42.254;23.102;2023-04-19T01:16:27;95430.66;;;8.69;84.06
71621;BME280;59471;42.254;23.102;2023-04-19T01:18:53;95431.78;;;8.75;83.75
71621;BME280;59471;42.254;23.102;2023-04-19T01:21:19;95427.72;;;8.49;85.13
71621;BME280;59471;42.254;23.102;2023-04-19T01:23:46;95431.09;;;8.58;84.78
71621;BME280;59471;42.254;23.102;2023-04-19T01:26:12;95435.50;;;8.57;85.06
71621;BME280;59471;42.254;23.102;2023-04-19T01:28:37;95433.59;;;8.51;85.18
71621;BME280;59471;42.254;23.102;2023-04-19T01:31:03;95432.59;;;8.52;85.33
71621;BME280;59471;42.254;23.102;2023-04-19T01:33:28;95427.03;;;8.55;84.95
71621;BME280;59471;42.254;23.102;2023-04-19T01:35:54;95422.63;;;8.56;85.13
71621;BME280;59471;42.254;23.102;2023-04-19T01:38:19;95424.13;;;8.50;85.56
71621;BME280;59471;42.254;23.102;2023-04-19T01:40:45;95425.47;;;8.46;84.97
71621;BME280;59471;42.254;23.102;2023-04-19T01:43:15;95422.38;;;8.20;86.46
71621;BME280;59471;42.254;23.102;2023-04-19T01:45:41;95418.53;;;8.07;87.34
71621;BME280;59471;42.254;23.102;2023-04-19T01:48:07;95419.78;;;8.11;87.18
71621;BME280;59471;42.254;23.102;2023-04-19T01:50:32;95427.59;;;8.20;86.35
71621;BME280;59471;42.254;23.102;2023-04-19T01:52:58;95419.75;;;8.20;86.58
71621;BME280;59471;42.254;23.102;2023-04-19T01:55:24;95420.00;;;8.33;86.14
71621;BME280;59471;42.254;23.102;2023-04-19T01:57:50;95417.72;;;8.30;85.77
71621;BME280;59471;42.254;23.102;2023-04-19T02:00:18;95419.69;;;8.28;85.62
71621;BME280;59471;42.254;23.102;2023-04-19T02:02:43;95417.97;;;8.20;86.39
71621;BME280;59471;42.254;23.102;2023-04-19T02:05:09;95420.38;;;8.22;85.98
71621;BME280;59471;42.254;23.102;2023-04-19T02:07:36;95413.81;;;8.26;85.19
71621;BME280;59471;42.254;23.102;2023-04-19T02:10:02;95428.63;;;8.33;85.11
71621;BME280;59471;42.254;23.102;2023-04-19T02:12:29;95421.78;;;8.32;85.58
71621;BME280;59471;42.254;23.102;2023-04-19T02:14:58;95422.72;;;8.17;86.25
71621;BME280;59471;42.254;23.102;2023-04-19T02:17:26;95430.47;;;8.25;86.13
71621;BME280;59471;42.254;23.102;2023-04-19T02:19:52;95421.50;;;7.96;86.45
71621;BME280;59471;42.254;23.102;2023-04-19T02:22:18;95426.28;;;8.16;86.77
71621;BME280;59471;42.254;23.102;2023-04-19T02:24:44;95427.16;;;8.31;86.06
71621;BME280;59471;42.254;23.102;2023-04-19T02:27:10;95427.47;;;8.36;85.40
71621;BME280;59471;42.254;23.102;2023-04-19T02:29:36;95422.06;;;8.15;86.22
71621;BME280;59471;42.254;23.102;2023-04-19T02:32:02;95427.84;;;8.25;85.94
71621;BME280;59471;42.254;23.102;2023-04-19T02:34:31;95430.34;;;7.87;87.36
71621;BME280;59471;42.254;23.102;2023-04-19T02:36:57;95432.19;;;8.09;87.23
71621;BME280;59471;42.254;23.102;2023-04-19T02:39:22;95430.56;;;8.08;87.04
71621;BME280;59471;42.254;23.102;2023-04-19T02:41:48;95436.78;;;8.07;87.44
71621;BME280;59471;42.254;23.102;2023-04-19T02:44:14;95438.19;;;7.87;87.83
71621;BME280;59471;42.254;23.102;2023-04-19T02:46:40;95435.44;;;8.11;87.16
71621;BME280;59471;42.254;23.102;2023-04-19T02:49:05;95430.81;;;8.22;87.16
71621;BME280;59471;42.254;23.102;2023-04-19T02:51:31;95427.53;;;7.97;87.04
71621;BME280;59471;42.254;23.102;2023-04-19T02:53:56;95429.50;;;7.95;87.98
71621;BME280;59471;42.254;23.102;2023-04-19T02:56:22;95433.22;;;8.00;87.94
71621;BME280;59471;42.254;23.102;2023-04-19T02:58:47;95431.94;;;7.96;87.92
71621;BME280;59471;42.254;23.102;2023-04-19T03:01:13;95430.56;;;8.08;87.66
71621;BME280;59471;42.254;23.102;2023-04-19T03:03:39;95430.53;;;8.17;87.89
71621;BME280;59471;42.254;23.102;2023-04-19T03:06:05;95428.72;;;8.17;87.63
71621;BME280;59471;42.254;23.102;2023-04-19T03:08:30;95432.16;;;7.86;88.89
71621;BME280;59471;42.254;23.102;2023-04-19T03:10:56;95435.81;;;8.00;88.55
71621;BME280;59471;42.254;23.102;2023-04-19T03:13:22;95429.53;;;7.86;89.28
71621;BME280;59471;42.254;23.102;2023-04-19T03:15:47;95429.88;;;8.15;88.20
71621;BME280;59471;42.254;23.102;2023-04-19T03:18:13;95422.44;;;8.03;88.56
71621;BME280;59471;42.254;23.102;2023-04-19T03:20:38;95424.81;;;8.13;88.41
71621;BME280;59471;42.254;23.102;2023-04-19T03:23:04;95427.50;;;8.28;87.92
71621;BME280;59471;42.254;23.102;2023-04-19T03:25:30;95423.91;;;8.29;88.25
71621;BME280;59471;42.254;23.102;2023-04-19T03:27:57;95430.13;;;8.28;88.00
71621;BME280;59471;42.254;23.102;2023-04-19T03:30:22;95427.84;;;8.25;87.99
71621;BME280;59471;42.254;23.102;2023-04-19T03:32:48;95427.22;;;8.23;88.00
71621;BME280;59471;42.254;23.102;2023-04-19T03:35:13;95423.88;;;8.14;88.20
71621;BME280;59471;42.254;23.102;2023-04-19T03:37:39;95428.88;;;7.84;89.88
71621;BME280;59471;42.254;23.102;2023-04-19T03:40:05;95427.94;;;7.85;89.60
71621;BME280;59471;42.254;23.102;2023-04-19T03:42:31;95433.16;;;7.77;89.92
71621;BME280;59471;42.254;23.102;2023-04-19T03:44:57;95440.75;;;7.95;89.47
71621;BME280;59471;42.254;23.102;2023-04-19T03:47:22;95429.22;;;8.12;88.90
71621;BME280;59471;42.254;23.102;2023-04-19T03:49:48;95426.59;;;7.89;89.66
71621;BME280;59471;42.254;23.102;2023-04-19T03:52:13;95429.97;;;7.98;88.53
71621;BME280;59471;42.254;23.102;2023-04-19T03:54:39;95433.00;;;8.10;88.77
71621;BME280;59471;42.254;23.102;2023-04-19T03:57:04;95429.31;;;8.04;88.88
71621;BME280;59471;42.254;23.102;2023-04-19T03:59:30;95437.88;;;8.13;88.65
71621;BME280;59471;42.254;23.102;2023-04-19T04:01:56;95433.00;;;8.10;88.60
71621;BME280;59471;42.254;23.102;2023-04-19T04:04:21;95431.16;;;8.19;88.43
71621;BME280;59471;42.254;23.102;2023-04-19T04:06:47;95426.75;;;8.19;88.51
71621;BME280;59471;42.254;23.102;2023-04-19T04:09:13;95427.06;;;7.93;89.23
71621;BME280;59471;42.254;23.102;2023-04-19T04:11:38;95426.03;;;8.02;89.59
71621;BME280;59471;42.254;23.102;2023-04-19T04:14:04;95425.47;;;8.15;89.36
71621;BME280;59471;42.254;23.102;2023-04-19T04:16:29;95429.53;;;8.18;89.00
71621;BME280;59471;42.254;23.102;2023-04-19T04:18:55;95440.44;;;8.21;89.19
71621;BME280;59471;42.254;23.102;2023-04-19T04:21:20;95432.88;;;8.03;90.30
71621;BME280;59471;42.254;23.102;2023-04-19T04:23:48;95432.66;;;8.13;90.65
71621;BME280;59471;42.254;23.102;2023-04-19T04:26:13;95432.09;;;8.26;90.15
71621;BME280;59471;42.254;23.102;2023-04-19T04:28:39;95435.41;;;8.20;89.92
71621;BME280;59471;42.254;23.102;2023-04-19T04:31:05;95428.44;;;8.43;89.46
71621;BME280;59471;42.254;23.102;2023-04-19T04:33:30;95425.25;;;8.25;91.26
71621;BME280;59471;42.254;23.102;2023-04-19T04:35:56;95434.63;;;8.42;90.11
71621;BME280;59471;42.254;23.102;2023-04-19T04:38:23;95435.56;;;8.49;89.72
71621;BME280;59471;42.254;23.102;2023-04-19T04:40:49;95432.19;;;8.64;89.76
71621;BME280;59471;42.254;23.102;2023-04-19T04:43:19;95431.78;;;8.75;88.94
71621;BME280;59471;42.254;23.102;2023-04-19T04:45:46;95425.41;;;8.77;88.67
71621;BME280;59471;42.254;23.102;2023-04-19T04:48:12;95428.41;;;8.89;89.41
71621;BME280;59471;42.254;23.102;2023-04-19T04:50:37;95438.84;;;8.89;88.25
71621;BME280;59471;42.254;23.102;2023-04-19T04:53:03;95433.38;;;8.99;89.00
71621;BME280;59471;42.254;23.102;2023-04-19T04:55:29;95436.34;;;9.11;88.81
71621;BME280;59471;42.254;23.102;2023-04-19T04:57:54;95436.81;;;9.14;89.10
71621;BME280;59471;42.254;23.102;2023-04-19T05:00:21;95437.63;;;9.15;88.96
71621;BME280;59471;42.254;23.102;2023-04-19T05:02:47;95431.34;;;9.24;88.69
71621;BME280;59471;42.254;23.102;2023-04-19T05:05:13;95434.38;;;9.13;88.71
71621;BME280;59471;42.254;23.102;2023-04-19T05:07:38;95431.59;;;9.29;88.05
71621;BME280;59471;42.254;23.102;2023-04-19T05:10:04;95437.72;;;9.36;86.94
71621;BME280;59471;42.254;23.102;2023-04-19T05:12:31;95434.75;;;9.39;85.17
71621;BME280;59471;42.254;23.102;2023-04-19T05:14:56;95436.38;;;9.25;86.10
71621;BME280;59471;42.254;23.102;2023-04-19T05:17:22;95438.63;;;9.28;86.59
71621;BME280;59471;42.254;23.102;2023-04-19T05:19:47;95435.22;;;9.28;87.91
71621;BME280;59471;42.254;23.102;2023-04-19T05:22:13;95436.47;;;9.47;86.35
71621;BME280;59471;42.254;23.102;2023-04-19T05:24:38;95436.22;;;9.57;86.08
71621;BME280;59471;42.254;23.102;2023-04-19T05:27:04;95445.66;;;9.58;84.74
71621;BME280;59471;42.254;23.102;2023-04-19T05:29:30;95437.38;;;9.69;82.62
71621;BME280;59471;42.254;23.102;2023-04-19T05:31:56;95436.56;;;9.54;83.38
71621;BME280;59471;42.254;23.102;2023-04-19T05:34:22;95443.59;;;9.68;83.68
71621;BME280;59471;42.254;23.102;2023-04-19T05:36:48;95435.00;;;9.74;83.13
71621;BME280;59471;42.254;23.102;2023-04-19T05:39:13;95430.22;;;9.92;81.13
71621;BME280;59471;42.254;23.102;2023-04-19T05:41:39;95422.78;;;10.11;81.37
71621;BME280;59471;42.254;23.102;2023-04-19T05:44:05;95430.97;;;10.23;81.44
71621;BME280;59471;42.254;23.102;2023-04-19T05:46:31;95432.50;;;10.17;81.03
71621;BME280;59471;42.254;23.102;2023-04-19T05:48:56;95419.16;;;10.12;80.15
71621;BME280;59471;42.254;23.102;2023-04-19T05:51:22;95424.81;;;10.30;80.18
71621;BME280;59471;42.254;23.102;2023-04-19T05:53:47;95429.63;;;10.12;80.18
71621;BME280;59471;42.254;23.102;2023-04-19T05:56:13;95426.41;;;10.10;79.50
71621;BME280;59471;42.254;23.102;2023-04-19T05:58:39;95434.84;;;10.12;80.12
71621;BME280;59471;42.254;23.102;2023-04-19T06:01:04;95439.84;;;10.07;81.19
71621;BME280;59471;42.254;23.102;2023-04-19T06:03:31;95430.66;;;9.96;79.62
71621;BME280;59471;42.254;23.102;2023-04-19T06:05:58;95435.38;;;9.86;81.00
71621;BME280;59471;42.254;23.102;2023-04-19T06:08:23;95441.53;;;9.78;80.23
71621;BME280;59471;42.254;23.102;2023-04-19T06:10:49;95431.63;;;10.10;79.92
71621;BME280;59471;42.254;23.102;2023-04-19T06:13:15;95436.38;;;10.21;79.36
71621;BME280;59471;42.254;23.102;2023-04-19T06:15:41;95434.44;;;10.44;79.30
71621;BME280;59471;42.254;23.102;2023-04-19T06:18:06;95428.97;;;10.61;78.65
71621;BME280;59471;42.254;23.102;2023-04-19T06:20:36;95423.84;;;10.74;78.51
71621;BME280;59471;42.254;23.102;2023-04-19T06:23:02;95422.28;;;10.80;78.25
71621;BME280;59471;42.254;23.102;2023-04-19T06:25:27;95428.69;;;10.77;77.84
71621;BME280;59471;42.254;23.102;2023-04-19T06:27:53;95428.03;;;10.97;79.01
71621;BME280;59471;42.254;23.102;2023-04-19T06:30:19;95429.81;;;11.18;78.17
71621;BME280;59471;42.254;23.102;2023-04-19T06:32:44;95429.31;;;11.29;76.06
71621;BME280;59471;42.254;23.102;2023-04-19T06:35:10;95418.91;;;11.14;77.62
71621;BME280;59471;42.254;23.102;2023-04-19T06:37:35;95422.44;;;11.00;77.97
71621;BME280;59471;42.254;23.102;2023-04-19T06:40:01;95430.03;;;11.16;76.74
71621;BME280;59471;42.254;23.102;2023-04-19T06:42:29;95435.41;;;11.08;77.43
71621;BME280;59471;42.254;23.102;2023-04-19T06:44:54;95436.28;;;11.22;77.69
71621;BME280;59471;42.254;23.102;2023-04-19T06:47:21;95427.88;;;11.26;77.78
71621;BME280;59471;42.254;23.102;2023-04-19T06:49:47;95429.47;;;11.27;76.81
71621;BME280;59471;42.254;23.102;2023-04-19T06:52:12;95431.06;;;11.22;76.91
71621;BME280;59471;42.254;23.102;2023-04-19T06:54:38;95442.28;;;11.44;74.45
71621;BME280;59471;42.254;23.102;2023-04-19T06:57:03;95431.59;;;11.39;76.66
71621;BME280;59471;42.254;23.102;2023-04-19T06:59:29;95434.72;;;11.97;76.93
71621;BME280;59471;42.254;23.102;2023-04-19T07:01:56;95441.53;;;12.33;75.52
71621;BME280;59471;42.254;23.102;2023-04-19T07:04:22;95444.16;;;12.33;74.12
71621;BME280;59471;42.254;23.102;2023-04-19T07:06:49;95433.69;;;12.39;72.67
71621;BME280;59471;42.254;23.102;2023-04-19T07:09:14;95439.72;;;12.26;73.28
71621;BME280;59471;42.254;23.102;2023-04-19T07:11:40;95446.19;;;12.37;73.48
71621;BME280;59471;42.254;23.102;2023-04-19T07:14:05;95434.34;;;12.00;73.13
71621;BME280;59471;42.254;23.102;2023-04-19T07:16:31;95440.91;;;11.82;73.62
71621;BME280;59471;42.254;23.102;2023-04-19T07:18:57;95441.31;;;11.79;73.79
71621;BME280;59471;42.254;23.102;2023-04-19T07:21:23;95444.66;;;11.67;73.26
71621;BME280;59471;42.254;23.102;2023-04-19T07:23:56;95432.81;;;11.77;71.78
71621;BME280;59471;42.254;23.102;2023-04-19T07:26:22;95449.13;;;11.73;71.41
71621;BME280;59471;42.254;23.102;2023-04-19T07:28:47;95447.41;;;11.52;72.02
71621;BME280;59471;42.254;23.102;2023-04-19T07:31:17;95437.38;;;11.62;73.09
71621;BME280;59471;42.254;23.102;2023-04-19T07:33:43;95444.31;;;11.76;71.41
71621;BME280;59471;42.254;23.102;2023-04-19T07:36:09;95440.75;;;11.91;71.58
71621;BME280;59471;42.254;23.102;2023-04-19T07:38:35;95441.28;;;12.14;70.79
71621;BME280;59471;42.254;23.102;2023-04-19T07:41:02;95440.03;;;12.10;68.20
71621;BME280;59471;42.254;23.102;2023-04-19T07:43:31;95444.88;;;12.06;68.68
71621;BME280;59471;42.254;23.102;2023-04-19T07:45:57;95440.75;;;11.91;69.14
71621;BME280;59471;42.254;23.102;2023-04-19T07:48:23;95442.09;;;12.15;68.03
71621;BME280;59471;42.254;23.102;2023-04-19T07:50:48;95435.72;;;12.57;66.65
71621;BME280;59471;42.254;23.102;2023-04-19T07:53:14;95435.94;;;12.75;66.26
71621;BME280;59471;42.254;23.102;2023-04-19T07:55:40;95434.94;;;12.70;66.04
71621;BME280;59471;42.254;23.102;2023-04-19T07:58:06;95431.13;;;13.06;65.84
71621;BME280;59471;42.254;23.102;2023-04-19T08:00:31;95431.91;;;13.19;63.92
71621;BME280;59471;42.254;23.102;2023-04-19T08:03:00;95430.50;;;12.84;64.95
71621;BME280;59471;42.254;23.102;2023-04-19T08:05:26;95420.38;;;13.20;62.87
71621;BME280;59471;42.254;23.102;2023-04-19T08:07:52;95418.34;;;13.49;64.63
71621;BME280;59471;42.254;23.102;2023-04-19T08:10:18;95422.34;;;13.65;63.16
71621;BME280;59471;42.254;23.102;2023-04-19T08:12:44;95418.50;;;13.81;61.30
71621;BME280;59471;42.254;23.102;2023-04-19T08:15:10;95420.88;;;13.89;61.83
71621;BME280;59471;42.254;23.102;2023-04-19T08:17:35;95417.75;;;14.05;62.63
71621;BME280;59471;42.254;23.102;2023-04-19T08:20:01;95411.78;;;13.85;61.99
71621;BME280;59471;42.254;23.102;2023-04-19T08:22:27;95411.03;;;13.64;61.91
71621;BME280;59471;42.254;23.102;2023-04-19T08:24:53;95407.81;;;13.62;62.27
71621;BME280;59471;42.254;23.102;2023-04-19T08:27:19;95415.13;;;13.47;61.60
71621;BME280;59471;42.254;23.102;2023-04-19T08:29:45;95407.41;;;13.52;61.26
71621;BME280;59471;42.254;23.102;2023-04-19T08:32:11;95397.25;;;13.69;61.35
71621;BME280;59471;42.254;23.102;2023-04-19T08:34:38;95402.25;;;13.84;60.29
71621;BME280;59471;42.254;23.102;2023-04-19T08:37:05;95393.09;;;14.38;62.56
71621;BME280;59471;42.254;23.102;2023-04-19T08:39:34;95400.38;;;14.74;60.66
71621;BME280;59471;42.254;23.102;2023-04-19T08:42:07;95391.16;;;14.58;57.80
71621;BME280;59471;42.254;23.102;2023-04-19T08:44:34;95391.94;;;14.66;58.26
71621;BME280;59471;42.254;23.102;2023-04-19T08:47:03;95391.47;;;14.75;55.55
71621;BME280;59471;42.254;23.102;2023-04-19T08:49:30;95390.31;;;14.65;56.50
71621;BME280;59471;42.254;23.102;2023-04-19T08:52:00;95396.34;;;14.72;54.99
71621;BME280;59471;42.254;23.102;2023-04-19T08:54:28;95389.91;;;14.68;55.82
71621;BME280;59471;42.254;23.102;2023-04-19T08:56:55;95388.19;;;14.80;55.08
71621;BME280;59471;42.254;23.102;2023-04-19T08:59:22;95380.75;;;14.95;52.46
71621;BME280;59471;42.254;23.102;2023-04-19T09:01:48;95371.81;;;14.96;53.32
71621;BME280;59471;42.254;23.102;2023-04-19T09:04:14;95381.31;;;15.04;51.28
71621;BME280;59471;42.254;23.102;2023-04-19T09:06:40;95376.13;;;14.66;53.05
71621;BME280;59471;42.254;23.102;2023-04-19T09:09:20;95371.88;;;14.90;52.69
71621;BME280;59471;42.254;23.102;2023-04-19T09:11:49;95368.28;;;14.84;52.93
71621;BME280;59471;42.254;23.102;2023-04-19T09:14:18;95363.66;;;15.04;49.47
71621;BME280;59471;42.254;23.102;2023-04-19T09:16:45;95378.97;;;15.58;51.53
71621;BME280;59471;42.254;23.102;2023-04-19T09:19:11;95372.56;;;15.65;51.10
71621;BME280;59471;42.254;23.102;2023-04-19T09:21:38;95367.25;;;15.90;50.81
71621;BME280;59471;42.254;23.102;2023-04-19T09:24:05;95363.31;;;16.11;49.12
71621;BME280;59471;42.254;23.102;2023-04-19T09:26:32;95361.22;;;16.32;50.98
71621;BME280;59471;42.254;23.102;2023-04-19T09:29:00;95367.50;;;16.01;47.69
71621;BME280;59471;42.254;23.102;2023-04-19T09:31:27;95372.06;;;15.93;48.32
71621;BME280;59471;42.254;23.102;2023-04-19T09:33:55;95365.28;;;15.67;48.32
71621;BME280;59471;42.254;23.102;2023-04-19T09:36:32;95367.66;;;15.32;50.83
71621;BME280;59471;42.254;23.102;2023-04-19T09:38:59;95361.50;;;15.20;52.29
71621;BME280;59471;42.254;23.102;2023-04-19T09:41:25;95368.38;;;15.21;54.27
71621;BME280;59471;42.254;23.102;2023-04-19T09:43:51;95371.69;;;15.10;54.66
71621;BME280;59471;42.254;23.102;2023-04-19T09:46:43;95362.91;;;15.16;53.60
71621;BME280;59471;42.254;23.102;2023-04-19T09:51:52;95366.75;;;15.20;54.63
71621;BME280;59471;42.254;23.102;2023-04-19T09:54:23;95368.56;;;15.19;55.56
71621;BME280;59471;42.254;23.102;2023-04-19T09:56:51;95362.78;;;15.11;54.17
71621;BME280;59471;42.254;23.102;2023-04-19T09:59:17;95359.28;;;14.67;54.81
71621;BME280;59471;42.254;23.102;2023-04-19T10:01:47;95359.63;;;14.45;56.68
71621;BME280;59471;42.254;23.102;2023-04-19T10:04:20;95363.72;;;14.41;57.51
71621;BME280;59471;42.254;23.102;2023-04-19T10:06:53;95369.44;;;14.31;59.89
71621;BME280;59471;42.254;23.102;2023-04-19T10:09:22;95363.75;;;14.28;59.40
71621;BME280;59471;42.254;23.102;2023-04-19T10:11:51;95370.25;;;14.32;60.09
71621;BME280;59471;42.254;23.102;2023-04-19T10:14:22;95368.97;;;14.41;57.57
71621;BME280;59471;42.254;23.102;2023-04-19T10:16:49;95364.19;;;14.25;58.01
71621;BME280;59471;42.254;23.102;2023-04-19T10:19:19;95377.53;;;14.30;60.17
71621;BME280;59471;42.254;23.102;2023-04-19T10:21:47;95367.38;;;14.33;59.15
71621;BME280;59471;42.254;23.102;2023-04-19T10:24:14;95363.25;;;14.51;58.71
71621;BME280;59471;42.254;23.102;2023-04-19T10:32:16;95357.09;;;15.14;60.78
71621;BME280;59471;42.254;23.102;2023-04-19T10:34:41;95352.84;;;15.31;58.96
71621;BME280;59471;42.254;23.102;2023-04-19T10:37:10;95353.66;;;15.50;58.51
71621;BME280;59471;42.254;23.102;2023-04-19T10:39:43;95344.22;;;15.42;53.34
71621;BME280;59471;42.254;23.102;2023-04-19T10:42:09;95348.97;;;15.52;52.85
71621;BME280;59471;42.254;23.102;2023-04-19T10:44:35;95342.91;;;15.51;55.60
71621;BME280;59471;42.254;23.102;2023-04-19T10:47:01;95350.84;;;15.63;52.98
71621;BME280;59471;42.254;23.102;2023-04-19T10:49:27;95344.78;;;15.26;55.32
71621;BME280;59471;42.254;23.102;2023-04-19T10:51:53;95339.06;;;15.11;55.65
71621;BME280;59471;42.254;23.102;2023-04-19T10:54:32;95335.66;;;15.03;55.97
71621;BME280;59471;42.254;23.102;2023-04-19T10:59:29;95337.06;;;15.24;53.16
71621;BME280;59471;42.254;23.102;2023-04-19T11:01:58;95344.72;;;14.89;53.92
71621;BME280;59471;42.254;23.102;2023-04-19T11:07:03;95339.88;;;14.86;55.83
71621;BME280;59471;42.254;23.102;2023-04-19T11:09:36;95333.56;;;14.87;53.72
71621;BME280;59471;42.254;23.102;2023-04-19T11:12:05;95341.75;;;15.04;53.57
71621;BME280;59471;42.254;23.102;2023-04-19T11:14:36;95331.88;;;15.18;52.80
71621;BME280;59471;42.254;23.102;2023-04-19T11:17:16;95331.56;;;15.07;52.58
71621;BME280;59471;42.254;23.102;2023-04-19T11:19:54;95320.56;;;14.92;52.25
71621;BME280;59471;42.254;23.102;2023-04-19T11:22:36;95329.63;;;14.96;52.33
71621;BME280;59471;42.254;23.102;2023-04-19T11:27:39;95330.56;;;15.27;53.49
71621;BME280;59471;42.254;23.102;2023-04-19T11:32:36;95340.81;;;15.53;52.31
71621;BME280;59471;42.254;23.102;2023-04-19T11:35:06;95337.63;;;15.70;50.71
71621;BME280;59471;42.254;23.102;2023-04-19T11:37:36;95337.25;;;15.85;51.25
71621;BME280;59471;42.254;23.102;2023-04-19T11:40:04;95331.00;;;15.61;52.39
71621;BME280;59471;42.254;23.102;2023-04-19T11:42:31;95343.63;;;15.59;50.89
71621;BME280;59471;42.254;23.102;2023-04-19T11:44:57;95329.97;;;15.43;50.10
71621;BME280;59471;42.254;23.102;2023-04-19T11:47:24;95338.50;;;15.45;50.87
71621;BME280;59471;42.254;23.102;2023-04-19T11:49:53;95333.22;;;15.45;50.92
71621;BME280;59471;42.254;23.102;2023-04-19T11:52:20;95333.28;;;15.39;51.39
71621;BME280;59471;42.254;23.102;2023-04-19T11:54:47;95338.16;;;15.35;50.10
71621;BME280;59471;42.254;23.102;2023-04-19T11:57:13;95336.28;;;15.24;51.08
71621;BME280;59471;42.254;23.102;2023-04-19T12:00:05;95338.03;;;15.12;51.68
71621;BME280;59471;42.254;23.102;2023-04-19T12:02:41;95336.97;;;14.94;51.94
71621;BME280;59471;42.254;23.102;2023-04-19T12:07:34;95332.03;;;14.54;54.65
71621;BME280;59471;42.254;23.102;2023-04-19T12:10:08;95336.00;;;14.32;57.07
71621;BME280;59471;42.254;23.102;2023-04-19T12:12:35;95333.69;;;14.10;57.70
71621;BME280;59471;42.254;23.102;2023-04-19T12:15:00;95330.69;;;14.07;58.79
71621;BME280;59471;42.254;23.102;2023-04-19T12:17:26;95327.88;;;14.02;59.35
71621;BME280;59471;42.254;23.102;2023-04-19T12:19:52;95328.19;;;14.19;58.83
71621;BME280;59471;42.254;23.102;2023-04-19T12:22:18;95323.22;;;14.35;58.78
71621;BME280;59471;42.254;23.102;2023-04-19T12:24:45;95322.47;;;14.22;59.48
71621;BME280;59471;42.254;23.102;2023-04-19T12:27:11;95326.97;;;14.46;58.47
71621;BME280;59471;42.254;23.102;2023-04-19T12:29:37;95323.69;;;14.26;58.09
71621;BME280;59471;42.254;23.102;2023-04-19T12:32:03;95324.25;;;14.59;58.32
71621;BME280;59471;42.254;23.102;2023-04-19T12:34:29;95316.53;;;14.65;55.70
71621;BME280;59471;42.254;23.102;2023-04-19T12:36:55;95313.25;;;14.69;54.22
71621;BME280;59471;42.254;23.102;2023-04-19T12:39:21;95315.78;;;14.57;56.29
71621;BME280;59471;42.254;23.102;2023-04-19T12:41:47;95315.06;;;14.94;55.12
71621;BME280;59471;42.254;23.102;2023-04-19T12:44:14;95316.19;;;15.41;52.30
71621;BME280;59471;42.254;23.102;2023-04-19T12:46:40;95309.16;;;15.53;52.44
71621;BME280;59471;42.254;23.102;2023-04-19T12:49:06;95311.50;;;15.62;52.37
71621;BME280;59471;42.254;23.102;2023-04-19T12:51:31;95299.66;;;15.71;51.02
71621;BME280;59471;42.254;23.102;2023-04-19T12:53:57;95300.66;;;15.33;52.55
71621;BME280;59471;42.254;23.102;2023-04-19T12:56:22;95304.31;;;15.50;52.25
71621;BME280;59471;42.254;23.102;2023-04-19T12:58:48;95306.59;;;15.28;51.86
71621;BME280;59471;42.254;23.102;2023-04-19T13:01:13;95304.09;;;15.15;52.32
71621;BME280;59471;42.254;23.102;2023-04-19T13:03:39;95300.78;;;15.01;52.88
71621;BME280;59471;42.254;23.102;2023-04-19T13:06:05;95297.63;;;14.93;52.63
71621;BME280;59471;42.254;23.102;2023-04-19T13:08:31;95306.34;;;14.93;53.40
71621;BME280;59471;42.254;23.102;2023-04-19T13:10:57;95304.75;;;14.92;52.79
71621;BME280;59471;42.254;23.102;2023-04-19T13:13:27;95307.81;;;14.89;52.71